FVWN

Hwange National Park Airport

Hwange, Zimbabwe
METAR FVWN 151200Z 15002KT CAVOK 34/06 Q1015
Observed Flight Rules
Nov-15 @ 12:00 UTC (11 hours ago) Visual Flight Rules
Wind Visibility Clouds
150° at 2 knots 10,000+ meters
  • Clear skies
Temperatures Readings
Current 34°C / 93°F
Dewpoint 6°C / 43°F
Humidity 17%
Altimeter 29.97" Hg
Pressure 1015 hPa
Elevation 1077
METAR FVWN 151200Z 15002KT CAVOK 34/06 Q1015
Observed Flight Rules
Nov-15 @ 12:00 UTC
(11 hours ago)
VFR
Wind Visibility
150° at 2 knots 10,000+ meters
Clouds
  • Clear skies
Temperature Dewpoint
34°C / 93°F 6°C / 43°F
Humidity Altimeter Pressure
17% 29.97" Hg 1015 hPa